Malaga, Spain

12:09 AM CET on February 10, 2016 (GMT +0100)
IALALHAU2 | | Change Station
CLOSE
Current Station
Personal Weather Station
Location: Alhaurin De La Torre, Malaga
Elevation: 360 ft
Nearby Weather Stations

Elev 360 ft 36.66 °N, 4.55 °W | Updated 8 minutes ago

Scattered Clouds
Scattered Clouds
61.0 °F
Feels Like 61.0 °F
N
2.0
Wind Variable Wind from WSW
Gusts 6.3 mph

Today
High -- | Low -- °F
--% Chance of Precip.
Yesterday
High -- | Low -- °F
Precip. -- in
Pressure 30.36 in
Visibility 6.2 miles
Clouds Scattered Clouds 2300 ft
Dew Point 46 °F
Humidity 59%
Rainfall Not available.
Snow Depth Not available.
8:12 AM 6:52 PM
New Moon, 2% visible
METAR LXGB 092250Z AUTO 27022KT 9999 // SCT023/// 16/15 Q1028
Pressure 30.36 in
Visibility 6.2 miles
Clouds Scattered Clouds 2300 ft
Dew Point 46 °F
Humidity 59%
Rainfall Not available.
Snow Depth Not available.
8:12 AM 6:52 PM
New Moon, 2% visible
METAR LXGB 092250Z AUTO 27022KT 9999 // SCT023/// 16/15 Q1028

10-Day Weather Forecast

Almanac

Astronomy

Feb. 10, 2016 Rise Set
Actual Time
Civil Twilight
Nautical Twilight
Astronomical Twilight
Moon
Length of Visible Light
Length of Day
Tomorrow will be .
, % of the Moon is Illuminated

Today's Extremes

Country Highs Country Lows

Community

WunderPhotos

Upload Photos

1,891,728 photos uploaded!

WunderBlog® & News

Nearby

Air Quality

  Air Quality AQ Index Pollutant
Not available.

Snow Depth

Station Depth Elevation

Earthquake Activity

City Distance Mag. Time & Date
Minimum magnitude displayed is 2.5.

Coastal Water Temperatures

Place Temperature

Stations

Nearby Weather Stations

Station Location Temp. Windchill Dew Point Humidity Wind Precip. Elev Updated Type